Uacc Ibn Sina — 9HTT9 — position and weather

sailwx.info

Track history (hours):
 
Tides and Currents Weather Stations Pressure Air Temp Water Temp Dewpoint Dewpoint Depression Visibility Wind Speed Wind Dir Waves Ship Positions

Uacc Ibn Sina

Last reported at 2017-Nov-26 21:25 UTC. Time now 2017-Dec-13 07:11 UTC.
Position N 01°18' E 103°21'.
Warning: this ship's position is 16 days out of date.

Length 228 m; draft 8.8 m.

Type: Ship (hazmat cat A). MMSI: 249497000.

Date/timePositionNaut miles runAvg speedWind from/ knotsBaromVisibWave heightAir tempDewpointWater temp
2017-Nov-26 21:25N 01°18' E 103°21'410.2
2017-Nov-26 20:59N 01°15' E 103°24'510.2
2017-Nov-26 20:30N 01°13' E 103°29'510.9
2017-Nov-26 20:00N 01°12' E 103°34'510.7
2017-Nov-26 19:30N 01°11' E 103°40'510.8
2017-Nov-26 19:00N 01°08' E 103°44'611.7
2017-Nov-26 18:30N 01°11' E 103°50'611.8
2017-Nov-26 18:00N 01°14' E 103°55'3 6.4
2017-Nov-26 17:30N 01°16' E 103°57'2 4.1
2017-Nov-26 17:00N 01°17' E 103°59'0 0.0
2017-Nov-26 11:53N 01°17' E 103°59'0 0.0
2017-Nov-26 08:17N 01°17' E 103°59'1 1.8
2017-Nov-26 07:50N 01°17' E 103°58'1 2.7
2017-Nov-26 07:30N 01°16' E 103°58'1 2.3
2017-Nov-26 07:00N 01°15' E 103°60'5 7.0
2017-Nov-26 06:20N 01°16' E 104°04'3 9.0
2017-Nov-26 05:57N 01°17' E 104°07'2 3.2
2017-Nov-26 05:28N 01°18' E 104°06'3 6.2
2017-Nov-26 04:59N 01°21' E 104°04'1 0.0
2017-Nov-24 09:18N 01°21' E 104°03'3 8.3
2017-Nov-24 08:59N 01°20' E 104°05'2 0.3
2017-Nov-24 02:20N 01°19' E 104°07'0 0.0
2017-Nov-23 20:23N 01°19' E 104°07'  
Track history (hours):
 
Tides and Currents Weather Stations Pressure Air Temp Water Temp Dewpoint Dewpoint Depression Visibility Wind Speed Wind Dir Waves Ship Positions

Uacc Ibn Sina

Last reported at 2017-Nov-26 21:25 UTC. Time now 2017-Dec-13 07:11 UTC.
Position N 01°18' E 103°21'.
Warning: this ship's position is 16 days out of date.

Length 228 m; draft 8.8 m.

Type: Ship (hazmat cat A). MMSI: 249497000.

Date/timePositionNaut miles runAvg speedWind from/ knotsBaromVisibWave heightAir tempDewpointWater temp
2017-Nov-26 21:25N 01°18' E 103°21'410.2
2017-Nov-26 20:59N 01°15' E 103°24'510.2
2017-Nov-26 20:30N 01°13' E 103°29'510.9
2017-Nov-26 20:00N 01°12' E 103°34'510.7
2017-Nov-26 19:30N 01°11' E 103°40'510.8
2017-Nov-26 19:00N 01°08' E 103°44'611.7
2017-Nov-26 18:30N 01°11' E 103°50'611.8
2017-Nov-26 18:00N 01°14' E 103°55'3 6.4
2017-Nov-26 17:30N 01°16' E 103°57'2 4.1
2017-Nov-26 17:00N 01°17' E 103°59'0 0.0
2017-Nov-26 11:53N 01°17' E 103°59'0 0.0
2017-Nov-26 08:17N 01°17' E 103°59'1 1.8
2017-Nov-26 07:50N 01°17' E 103°58'1 2.7
2017-Nov-26 07:30N 01°16' E 103°58'1 2.3
2017-Nov-26 07:00N 01°15' E 103°60'5 7.0
2017-Nov-26 06:20N 01°16' E 104°04'3 9.0
2017-Nov-26 05:57N 01°17' E 104°07'2 3.2
2017-Nov-26 05:28N 01°18' E 104°06'3 6.2
2017-Nov-26 04:59N 01°21' E 104°04'1 0.0
2017-Nov-24 09:18N 01°21' E 104°03'3 8.3
2017-Nov-24 08:59N 01°20' E 104°05'2 0.3
2017-Nov-24 02:20N 01°19' E 104°07'0 0.0
2017-Nov-23 20:23N 01°19' E 104°07'  

Dump ship's entire track history